createdAt,value
2019-04-21T00:03:00.000Z,99522
2019-04-21T00:09:00.000Z,99528
2019-04-21T00:15:00.000Z,99514
2019-04-21T00:20:00.000Z,99515
2019-04-21T00:25:00.000Z,99506
2019-04-21T00:31:00.000Z,99513
2019-04-21T00:37:00.000Z,99509
2019-04-21T00:42:00.000Z,99486
2019-04-21T00:48:00.000Z,99488
2019-04-21T00:59:00.000Z,99507
2019-04-21T01:05:00.000Z,99499
2019-04-21T01:11:00.000Z,99495
2019-04-21T01:17:00.000Z,99493
2019-04-21T01:23:00.000Z,99493
2019-04-21T01:28:00.000Z,99485
2019-04-21T01:34:00.000Z,99484
2019-04-21T01:39:00.000Z,99482
2019-04-21T01:45:00.000Z,99478
2019-04-21T01:51:00.000Z,99462
2019-04-21T01:57:00.000Z,99471
2019-04-21T02:03:00.000Z,99473
2019-04-21T02:09:00.000Z,99464
2019-04-21T02:15:00.000Z,99465
2019-04-21T02:21:00.000Z,99467
2019-04-21T02:26:00.000Z,99462
2019-04-21T02:32:00.000Z,99455
2019-04-21T02:39:00.000Z,99450
2019-04-21T02:45:00.000Z,99443
2019-04-21T02:50:00.000Z,99442
2019-04-21T03:02:00.000Z,99450
2019-04-21T03:08:00.000Z,99430
2019-04-21T03:14:00.000Z,99438
2019-04-21T03:21:00.000Z,99439
2019-04-21T03:27:00.000Z,99433
2019-04-21T03:33:00.000Z,99426
2019-04-21T03:41:00.000Z,99428
2019-04-21T03:47:00.000Z,99426
2019-04-21T03:58:00.000Z,99434
2019-04-21T04:05:00.000Z,99443
2019-04-21T04:11:00.000Z,99442
2019-04-21T04:17:00.000Z,99435
2019-04-21T04:23:00.000Z,99449
2019-04-21T04:29:00.000Z,99453
2019-04-21T04:42:00.000Z,99466
2019-04-21T04:48:00.000Z,99467
2019-04-21T04:54:00.000Z,99463
2019-04-21T05:05:00.000Z,99467
2019-04-21T05:11:00.000Z,99463
2019-04-21T05:17:00.000Z,99467
2019-04-21T05:24:00.000Z,99467
2019-04-21T05:29:00.000Z,99462
2019-04-21T05:35:00.000Z,99464
2019-04-21T05:41:00.000Z,99462
2019-04-21T05:46:00.000Z,99462
2019-04-21T05:52:00.000Z,99460
2019-04-21T05:59:00.000Z,99452
2019-04-21T06:04:00.000Z,99462
2019-04-21T06:10:00.000Z,99447
2019-04-21T06:16:00.000Z,99444
2019-04-21T06:22:00.000Z,99440
2019-04-21T06:28:00.000Z,99456
2019-04-21T06:46:00.000Z,99462
2019-04-21T06:51:00.000Z,99461
2019-04-21T06:58:00.000Z,99464
2019-04-21T07:04:00.000Z,99461
2019-04-21T07:09:00.000Z,99473
2019-04-21T07:15:00.000Z,99475
2019-04-21T07:21:00.000Z,99470
2019-04-21T07:27:00.000Z,99468
2019-04-21T07:33:00.000Z,99454
2019-04-21T07:39:00.000Z,99462
2019-04-21T07:45:00.000Z,99463
2019-04-21T07:50:00.000Z,99464
2019-04-21T07:56:00.000Z,99469
2019-04-21T08:02:00.000Z,99461
2019-04-21T08:08:00.000Z,99456
2019-04-21T08:14:00.000Z,99456
2019-04-21T08:20:00.000Z,99460
2019-04-21T08:26:00.000Z,99456
2019-04-21T08:31:00.000Z,99453
2019-04-21T08:37:00.000Z,99463
2019-04-21T08:48:00.000Z,99454
2019-04-21T08:54:00.000Z,99446
2019-04-21T09:00:00.000Z,99443
2019-04-21T09:12:00.000Z,99436
2019-04-21T09:17:00.000Z,99441
2019-04-21T09:23:00.000Z,99431
2019-04-21T09:29:00.000Z,99434
2019-04-21T09:34:00.000Z,99428
2019-04-21T09:39:00.000Z,99421
2019-04-21T09:44:00.000Z,99413
2019-04-21T09:50:00.000Z,99406
2019-04-21T09:55:00.000Z,99401
2019-04-21T10:00:00.000Z,99398
2019-04-21T10:05:00.000Z,99403
2019-04-21T10:10:00.000Z,99389
2019-04-21T10:15:00.000Z,99381
2019-04-21T10:20:00.000Z,99362
2019-04-21T10:25:00.000Z,99361
2019-04-21T10:30:00.000Z,99352
2019-04-21T10:35:00.000Z,99352
2019-04-21T10:40:00.000Z,99350
2019-04-21T10:45:00.000Z,99348
2019-04-21T10:50:00.000Z,99331
2019-04-21T10:55:00.000Z,99333
2019-04-21T11:01:00.000Z,99325
2019-04-21T11:06:00.000Z,99318
2019-04-21T11:11:00.000Z,99302
2019-04-21T11:16:00.000Z,99305
2019-04-21T11:21:00.000Z,99295
2019-04-21T11:26:00.000Z,99279
2019-04-21T11:31:00.000Z,99274
2019-04-21T11:36:00.000Z,99276
2019-04-21T11:41:00.000Z,99274
2019-04-21T11:46:00.000Z,99264
2019-04-21T11:51:00.000Z,99254
2019-04-21T11:56:00.000Z,99263
2019-04-21T12:01:00.000Z,99258
2019-04-21T12:06:00.000Z,99243
2019-04-21T12:11:00.000Z,99246
2019-04-21T12:16:00.000Z,99234
2019-04-21T12:21:00.000Z,99231
2019-04-21T12:27:00.000Z,99225
2019-04-21T12:32:00.000Z,99224
2019-04-21T12:37:00.000Z,99219
2019-04-21T12:42:00.000Z,99209
2019-04-21T12:47:00.000Z,99195
2019-04-21T12:52:00.000Z,99189
2019-04-21T12:57:00.000Z,99189
2019-04-21T13:02:00.000Z,99179
2019-04-21T13:07:00.000Z,99176
2019-04-21T13:12:00.000Z,99168
2019-04-21T13:17:00.000Z,99166
2019-04-21T13:22:00.000Z,99153
2019-04-21T13:27:00.000Z,99147
2019-04-21T13:32:00.000Z,99142
2019-04-21T13:37:00.000Z,99137
2019-04-21T13:42:00.000Z,99137
2019-04-21T13:48:00.000Z,99124
2019-04-21T13:53:00.000Z,99112
2019-04-21T13:58:00.000Z,99113
2019-04-21T14:03:00.000Z,99109
2019-04-21T14:08:00.000Z,99104
2019-04-21T14:13:00.000Z,99091
2019-04-21T14:18:00.000Z,99082
2019-04-21T14:23:00.000Z,99089
2019-04-21T14:28:00.000Z,99077
2019-04-21T14:33:00.000Z,99067
2019-04-21T14:38:00.000Z,99064
2019-04-21T14:43:00.000Z,99058
2019-04-21T14:48:00.000Z,99057
2019-04-21T14:53:00.000Z,99048
2019-04-21T14:58:00.000Z,99046
2019-04-21T15:03:00.000Z,99045
2019-04-21T15:08:00.000Z,99046
2019-04-21T15:13:00.000Z,99038
2019-04-21T15:18:00.000Z,99031
2019-04-21T15:23:00.000Z,99027
2019-04-21T15:28:00.000Z,99040
2019-04-21T15:33:00.000Z,99029
2019-04-21T15:39:00.000Z,99018
2019-04-21T15:44:00.000Z,99012
2019-04-21T15:49:00.000Z,99004
2019-04-21T15:54:00.000Z,99004
2019-04-21T15:59:00.000Z,98997
2019-04-21T16:04:00.000Z,98997
2019-04-21T16:09:00.000Z,98986
2019-04-21T16:14:00.000Z,98983
2019-04-21T16:19:00.000Z,98979
2019-04-21T16:24:00.000Z,98972
2019-04-21T16:29:00.000Z,98971
2019-04-21T16:34:00.000Z,98967
2019-04-21T16:39:00.000Z,98968
2019-04-21T16:44:00.000Z,98970
2019-04-21T16:49:00.000Z,98961
2019-04-21T16:54:00.000Z,98953
2019-04-21T17:00:00.000Z,98954
2019-04-21T17:05:00.000Z,98949
2019-04-21T17:10:00.000Z,98952
2019-04-21T17:15:00.000Z,98950
2019-04-21T17:22:00.000Z,98939
2019-04-21T17:27:00.000Z,98940
2019-04-21T17:32:00.000Z,98935
2019-04-21T17:37:00.000Z,98944
2019-04-21T17:42:00.000Z,98932
2019-04-21T17:47:00.000Z,98932
2019-04-21T17:52:00.000Z,98943
2019-04-21T17:58:00.000Z,98946
2019-04-21T18:09:00.000Z,98944
2019-04-21T18:15:00.000Z,98944
2019-04-21T18:20:00.000Z,98949
2019-04-21T18:25:00.000Z,98951
2019-04-21T18:31:00.000Z,98947
2019-04-21T18:36:00.000Z,98943
2019-04-21T18:41:00.000Z,98940
2019-04-21T18:47:00.000Z,98942
2019-04-21T18:53:00.000Z,98947
2019-04-21T18:58:00.000Z,98938
2019-04-21T19:03:00.000Z,98940
2019-04-21T19:08:00.000Z,98944
2019-04-21T19:15:00.000Z,98943
2019-04-21T19:26:00.000Z,98938
2019-04-21T19:32:00.000Z,98939
2019-04-21T19:37:00.000Z,98947
2019-04-21T19:43:00.000Z,98947
2019-04-21T19:48:00.000Z,98947
2019-04-21T19:54:00.000Z,98939
2019-04-21T19:59:00.000Z,98950
2019-04-21T20:05:00.000Z,98942
2019-04-21T20:10:00.000Z,98949
2019-04-21T20:21:00.000Z,98938
2019-04-21T20:26:00.000Z,98937
2019-04-21T20:31:00.000Z,98937
2019-04-21T20:42:00.000Z,98924
2019-04-21T20:48:00.000Z,98924
2019-04-21T20:59:00.000Z,98917
2019-04-21T21:05:00.000Z,98911
2019-04-21T21:10:00.000Z,98920
2019-04-21T21:16:00.000Z,98911
2019-04-21T21:22:00.000Z,98907
2019-04-21T21:28:00.000Z,98898
2019-04-21T21:33:00.000Z,98896
2019-04-21T21:39:00.000Z,98890
2019-04-21T21:45:00.000Z,98886
2019-04-21T21:50:00.000Z,98887
2019-04-21T21:56:00.000Z,98873
2019-04-21T22:01:00.000Z,98879
2019-04-21T22:06:00.000Z,98878
2019-04-21T22:11:00.000Z,98883
2019-04-21T22:16:00.000Z,98894
2019-04-21T22:22:00.000Z,98891
2019-04-21T22:27:00.000Z,98873
2019-04-21T22:32:00.000Z,98874
2019-04-21T22:38:00.000Z,98858
2019-04-21T22:43:00.000Z,98858
2019-04-21T22:48:00.000Z,98855
2019-04-21T22:54:00.000Z,98846
2019-04-21T22:59:00.000Z,98830
2019-04-21T23:04:00.000Z,98841
2019-04-21T23:09:00.000Z,98840
2019-04-21T23:14:00.000Z,98830
2019-04-21T23:20:00.000Z,98818
2019-04-21T23:25:00.000Z,98821
2019-04-21T23:31:00.000Z,98813
2019-04-21T23:37:00.000Z,98811
2019-04-21T23:42:00.000Z,98812
2019-04-21T23:47:00.000Z,98801
2019-04-21T23:53:00.000Z,98787
2019-04-21T23:58:00.000Z,98785
